Cheikh El Mokrani — C6WD5 — position and weather

sailwx.info

Track history (hours):
 
Tides and Currents Weather Stations Pressure Air Temp Water Temp Dewpoint Dewpoint Depression Visibility Wind Speed Wind Dir Waves Ship Positions

Cheikh El Mokrani

Last reported at 2015-May-26 06:29 UTC. Time now 2015-May-26 09:39 UTC.
Position N 39°38' W 000°13'.

Length 220 m; draft 9.8 m.

Type: Ship (hazmat cat D). MMSI: 309979000.

Date/timePositionNaut miles runAvg speedWind from/ knotsBaromVisibWave heightAir tempDewpointWater temp
2015-May-26 06:29N 39°38' W 000°13'4 4.1
2015-May-26 05:33N 39°35' W 000°09'6 6.0
2015-May-26 04:33N 39°31' W 000°03'2510.1
2015-May-26 02:04N 39°13' E 000°18'611.4
2015-May-26 01:33N 39°08' E 000°23'2913.2
2015-May-25 23:23N 38°47' E 000°48'2513.8
2015-May-25 21:33N 38°29' E 001°11'1513.6
2015-May-25 20:27N 38°25' E 001°29'1213.7
2015-May-25 19:33N 38°22' E 001°44'1814.2
2015-May-25 18:19N 38°17' E 002°06'  
2015-May-23 02:07N 43°07' E 005°03'916.1
2015-May-23 01:33N 43°16' E 004°59'1010.3
2015-May-23 00:34N 43°25' E 004°53'3 2.4
2015-May-22 23:29N 43°27' E 004°51'0 0.0
2015-May-22 22:28N 43°27' E 004°51'0 0.0
2015-May-22 21:29N 43°27' E 004°51'0 0.0
2015-May-22 20:32N 43°27' E 004°51'0 0.0
2015-May-22 19:32N 43°27' E 004°51'0 0.0
2015-May-22 18:32N 43°27' E 004°51'0 0.0
2015-May-22 17:29N 43°27' E 004°51'0 0.0
2015-May-22 16:28N 43°27' E 004°51'0 0.0
2015-May-22 15:28N 43°27' E 004°51'0 0.0
2015-May-22 14:31N 43°27' E 004°51'0 0.0
2015-May-22 13:28N 43°27' E 004°51'0 0.0
2015-May-22 12:25N 43°27' E 004°51'0 0.0
2015-May-22 11:31N 43°27' E 004°51'0 0.0
2015-May-22 10:19N 43°27' E 004°51'0 0.0
2015-May-22 09:31N 43°27' E 004°51'0 0.0
2015-May-22 08:25N 43°27' E 004°51'0 0.0
2015-May-22 07:28N 43°27' E 004°51'0 0.0
2015-May-22 06:28N 43°27' E 004°51'0 0.0
2015-May-22 05:28N 43°27' E 004°51'0 0.0
2015-May-22 04:10N 43°27' E 004°51'0 0.0
2015-May-22 03:28N 43°27' E 004°51'0 0.0
2015-May-22 02:22N 43°27' E 004°51'0 0.0
2015-May-22 01:28N 43°27' E 004°51'0 0.0
2015-May-22 00:28N 43°27' E 004°51'0 0.0
2015-May-21 23:28N 43°27' E 004°51'0 0.0
2015-May-21 22:22N 43°27' E 004°51'0 0.0
2015-May-21 21:28N 43°27' E 004°51'0 0.0
2015-May-21 20:22N 43°27' E 004°51'0 0.0
2015-May-21 19:28N 43°27' E 004°51'3 2.8
2015-May-21 18:33N 43°25' E 004°53'7 6.8
2015-May-21 17:33N 43°20' E 004°59'3 3.4
2015-May-21 16:33N 43°16' E 005°01'8 6.8
2015-May-21 15:25N 43°10' E 005°05'  
2015-May-16 08:15N 43°12' E 005°01'912.7
2015-May-16 07:33N 43°20' E 004°57'0 0.5
2015-May-16 06:30N 43°21' E 004°57'  
Track history (hours):
 
Tides and Currents Weather Stations Pressure Air Temp Water Temp Dewpoint Dewpoint Depression Visibility Wind Speed Wind Dir Waves Ship Positions

Cheikh El Mokrani

Last reported at 2015-May-26 06:29 UTC. Time now 2015-May-26 09:39 UTC.
Position N 39°38' W 000°13'.

Length 220 m; draft 9.8 m.

Type: Ship (hazmat cat D). MMSI: 309979000.

Date/timePositionNaut miles runAvg speedWind from/ knotsBaromVisibWave heightAir tempDewpointWater temp
2015-May-26 06:29N 39°38' W 000°13'4 4.1
2015-May-26 05:33N 39°35' W 000°09'6 6.0
2015-May-26 04:33N 39°31' W 000°03'2510.1
2015-May-26 02:04N 39°13' E 000°18'611.4
2015-May-26 01:33N 39°08' E 000°23'2913.2
2015-May-25 23:23N 38°47' E 000°48'2513.8
2015-May-25 21:33N 38°29' E 001°11'1513.6
2015-May-25 20:27N 38°25' E 001°29'1213.7
2015-May-25 19:33N 38°22' E 001°44'1814.2
2015-May-25 18:19N 38°17' E 002°06'  
2015-May-23 02:07N 43°07' E 005°03'916.1
2015-May-23 01:33N 43°16' E 004°59'1010.3
2015-May-23 00:34N 43°25' E 004°53'3 2.4
2015-May-22 23:29N 43°27' E 004°51'0 0.0
2015-May-22 22:28N 43°27' E 004°51'0 0.0
2015-May-22 21:29N 43°27' E 004°51'0 0.0
2015-May-22 20:32N 43°27' E 004°51'0 0.0
2015-May-22 19:32N 43°27' E 004°51'0 0.0
2015-May-22 18:32N 43°27' E 004°51'0 0.0
2015-May-22 17:29N 43°27' E 004°51'0 0.0
2015-May-22 16:28N 43°27' E 004°51'0 0.0
2015-May-22 15:28N 43°27' E 004°51'0 0.0
2015-May-22 14:31N 43°27' E 004°51'0 0.0
2015-May-22 13:28N 43°27' E 004°51'0 0.0
2015-May-22 12:25N 43°27' E 004°51'0 0.0
2015-May-22 11:31N 43°27' E 004°51'0 0.0
2015-May-22 10:19N 43°27' E 004°51'0 0.0
2015-May-22 09:31N 43°27' E 004°51'0 0.0
2015-May-22 08:25N 43°27' E 004°51'0 0.0
2015-May-22 07:28N 43°27' E 004°51'0 0.0
2015-May-22 06:28N 43°27' E 004°51'0 0.0
2015-May-22 05:28N 43°27' E 004°51'0 0.0
2015-May-22 04:10N 43°27' E 004°51'0 0.0
2015-May-22 03:28N 43°27' E 004°51'0 0.0
2015-May-22 02:22N 43°27' E 004°51'0 0.0
2015-May-22 01:28N 43°27' E 004°51'0 0.0
2015-May-22 00:28N 43°27' E 004°51'0 0.0
2015-May-21 23:28N 43°27' E 004°51'0 0.0
2015-May-21 22:22N 43°27' E 004°51'0 0.0
2015-May-21 21:28N 43°27' E 004°51'0 0.0
2015-May-21 20:22N 43°27' E 004°51'0 0.0
2015-May-21 19:28N 43°27' E 004°51'3 2.8
2015-May-21 18:33N 43°25' E 004°53'7 6.8
2015-May-21 17:33N 43°20' E 004°59'3 3.4
2015-May-21 16:33N 43°16' E 005°01'8 6.8
2015-May-21 15:25N 43°10' E 005°05'  
2015-May-16 08:15N 43°12' E 005°01'912.7
2015-May-16 07:33N 43°20' E 004°57'0 0.5
2015-May-16 06:30N 43°21' E 004°57'  

Dump ship's entire track history